sensor_id;sensor_type;location;lat;lon;timestamp;pressure;altitude;pressure_sealevel;temperature;humidity
17438;BME280;73152;52.198;5.422;2023-11-18T00:01:39;102194.50;;;20.46;47.13
17438;BME280;73152;52.198;5.422;2023-11-18T00:04:09;102189.94;;;20.47;47.10
17438;BME280;73152;52.198;5.422;2023-11-18T00:06:41;102194.50;;;20.46;47.03
17438;BME280;73152;52.198;5.422;2023-11-18T00:09:13;102197.34;;;20.45;46.69
17438;BME280;73152;52.198;5.422;2023-11-18T00:11:43;102198.03;;;20.47;46.75
17438;BME280;73152;52.198;5.422;2023-11-18T00:14:12;102190.78;;;20.47;46.89
17438;BME280;73152;52.198;5.422;2023-11-18T00:16:41;102194.50;;;20.46;46.81
17438;BME280;73152;52.198;5.422;2023-11-18T00:19:09;102200.72;;;20.47;46.94
17438;BME280;73152;52.198;5.422;2023-11-18T00:21:38;102200.88;;;20.45;46.79
17438;BME280;73152;52.198;5.422;2023-11-18T00:24:08;102202.72;;;20.45;46.85
17438;BME280;73152;52.198;5.422;2023-11-18T00:26:41;102203.56;;;20.45;47.04
17438;BME280;73152;52.198;5.422;2023-11-18T00:29:10;102194.66;;;20.45;47.08
17438;BME280;73152;52.198;5.422;2023-11-18T00:31:39;102198.38;;;20.44;47.10
17438;BME280;73152;52.198;5.422;2023-11-18T00:34:08;102196.53;;;20.44;46.72
17438;BME280;73152;52.198;5.422;2023-11-18T00:36:37;102185.75;;;20.44;46.92
17438;BME280;73152;52.198;5.422;2023-11-18T00:39:06;102182.03;;;20.45;46.86
17438;BME280;73152;52.198;5.422;2023-11-18T00:41:35;102187.59;;;20.44;47.18
17438;BME280;73152;52.198;5.422;2023-11-18T00:44:06;102183.38;;;20.41;46.87
17438;BME280;73152;52.198;5.422;2023-11-18T00:46:35;102176.97;;;20.42;46.86
17438;BME280;73152;52.198;5.422;2023-11-18T00:49:04;102183.19;;;20.43;46.86
17438;BME280;73152;52.198;5.422;2023-11-18T00:51:33;102189.44;;;20.43;47.12
17438;BME280;73152;52.198;5.422;2023-11-18T00:54:03;102190.44;;;20.42;46.99
17438;BME280;73152;52.198;5.422;2023-11-18T00:56:33;102194.28;;;20.40;46.99
17438;BME280;73152;52.198;5.422;2023-11-18T00:59:01;102193.13;;;20.42;47.06
17438;BME280;73152;52.198;5.422;2023-11-18T01:01:34;102203.06;;;20.42;46.96
17438;BME280;73152;52.198;5.422;2023-11-18T01:04:04;102204.06;;;20.41;46.86
17438;BME280;73152;52.198;5.422;2023-11-18T01:06:33;102209.28;;;20.42;46.95
17438;BME280;73152;52.198;5.422;2023-11-18T01:09:02;102204.75;;;20.43;47.00
17438;BME280;73152;52.198;5.422;2023-11-18T01:11:32;102211.28;;;20.40;47.19
17438;BME280;73152;52.198;5.422;2023-11-18T01:14:01;102207.59;;;20.41;46.97
17438;BME280;73152;52.198;5.422;2023-11-18T01:16:30;102212.31;;;20.39;47.08
17438;BME280;73152;52.198;5.422;2023-11-18T01:19:02;102216.53;;;20.42;47.01
17438;BME280;73152;52.198;5.422;2023-11-18T01:21:35;102211.28;;;20.40;47.10
17438;BME280;73152;52.198;5.422;2023-11-18T01:24:05;102212.31;;;20.39;47.05
17438;BME280;73152;52.198;5.422;2023-11-18T01:26:34;102219.38;;;20.40;46.88
17438;BME280;73152;52.198;5.422;2023-11-18T01:29:03;102203.38;;;20.39;47.00
17438;BME280;73152;52.198;5.422;2023-11-18T01:31:32;102213.00;;;20.41;46.83
17438;BME280;73152;52.198;5.422;2023-11-18T01:34:04;102214.84;;;20.41;47.06
17438;BME280;73152;52.198;5.422;2023-11-18T01:36:33;102205.91;;;20.40;46.76
17438;BME280;73152;52.198;5.422;2023-11-18T01:39:02;102213.97;;;20.40;46.74
17438;BME280;73152;52.198;5.422;2023-11-18T01:41:33;102212.31;;;20.39;47.09
17438;BME280;73152;52.198;5.422;2023-11-18T01:44:01;102206.75;;;20.41;47.01
17438;BME280;73152;52.198;5.422;2023-11-18T01:46:30;102210.44;;;20.40;47.10
17438;BME280;73152;52.198;5.422;2023-11-18T01:49:04;102202.53;;;20.38;47.04
17438;BME280;73152;52.198;5.422;2023-11-18T01:51:34;102200.53;;;20.40;46.84
17438;BME280;73152;52.198;5.422;2023-11-18T01:54:06;102192.78;;;20.37;47.24
17438;BME280;73152;52.198;5.422;2023-11-18T01:56:41;102191.59;;;20.40;46.98
17438;BME280;73152;52.198;5.422;2023-11-18T01:59:11;102188.06;;;20.39;46.77
17438;BME280;73152;52.198;5.422;2023-11-18T02:01:47;102190.09;;;20.37;46.80
17438;BME280;73152;52.198;5.422;2023-11-18T02:04:20;102195.31;;;20.39;46.96
17438;BME280;73152;52.198;5.422;2023-11-18T02:06:51;102195.13;;;20.40;46.72
17438;BME280;73152;52.198;5.422;2023-11-18T02:09:23;102198.00;;;20.39;46.93
17438;BME280;73152;52.198;5.422;2023-11-18T02:12:03;102198.84;;;20.39;47.15
17438;BME280;73152;52.198;5.422;2023-11-18T02:14:40;102202.53;;;20.38;46.81
17438;BME280;73152;52.198;5.422;2023-11-18T02:17:12;102211.63;;;20.37;46.82
17438;BME280;73152;52.198;5.422;2023-11-18T02:19:45;102205.06;;;20.40;46.78
17438;BME280;73152;52.198;5.422;2023-11-18T02:22:15;102207.59;;;20.41;46.80
17438;BME280;73152;52.198;5.422;2023-11-18T02:24:44;102211.47;;;20.39;47.09
17438;BME280;73152;52.198;5.422;2023-11-18T02:27:17;102211.47;;;20.39;46.87
17438;BME280;73152;52.198;5.422;2023-11-18T02:29:48;102202.53;;;20.38;46.83
17438;BME280;73152;52.198;5.422;2023-11-18T02:32:25;102199.16;;;20.36;46.88
17438;BME280;73152;52.198;5.422;2023-11-18T02:35:08;102204.53;;;20.36;46.87
17438;BME280;73152;52.198;5.422;2023-11-18T02:37:44;102199.16;;;20.36;46.86
17438;BME280;73152;52.198;5.422;2023-11-18T02:40:19;102199.84;;;20.38;46.75
17438;BME280;73152;52.198;5.422;2023-11-18T02:42:52;102200.88;;;20.37;46.92
17438;BME280;73152;52.198;5.422;2023-11-18T02:45:22;102199.16;;;20.36;46.80
17438;BME280;73152;52.198;5.422;2023-11-18T02:47:53;102203.69;;;20.36;46.86
17438;BME280;73152;52.198;5.422;2023-11-18T02:50:23;102197.31;;;20.37;47.15
17438;BME280;73152;52.198;5.422;2023-11-18T02:52:53;102186.69;;;20.35;47.03
17438;BME280;73152;52.198;5.422;2023-11-18T02:55:22;102176.75;;;20.36;47.08
17438;BME280;73152;52.198;5.422;2023-11-18T02:57:54;102180.47;;;20.35;46.98
17438;BME280;73152;52.198;5.422;2023-11-18T03:00:23;102176.75;;;20.36;47.09
17438;BME280;73152;52.198;5.422;2023-11-18T03:02:54;102166.84;;;20.36;47.01
17438;BME280;73152;52.198;5.422;2023-11-18T03:05:23;102167.69;;;20.37;47.18
17438;BME280;73152;52.198;5.422;2023-11-18T03:07:52;102160.63;;;20.36;46.96
17438;BME280;73152;52.198;5.422;2023-11-18T03:10:24;102170.53;;;20.35;47.08
17438;BME280;73152;52.198;5.422;2023-11-18T03:12:55;102174.94;;;20.36;46.83
17438;BME280;73152;52.198;5.422;2023-11-18T03:15:24;102171.38;;;20.36;47.12
17438;BME280;73152;52.198;5.422;2023-11-18T03:17:54;102168.00;;;20.34;47.02
17438;BME280;73152;52.198;5.422;2023-11-18T03:20:24;102172.53;;;20.33;46.75
17438;BME280;73152;52.198;5.422;2023-11-18T03:22:55;102166.16;;;20.34;46.79
17438;BME280;73152;52.198;5.422;2023-11-18T03:25:23;102163.47;;;20.34;46.96
17438;BME280;73152;52.198;5.422;2023-11-18T03:27:55;102156.06;;;20.36;46.83
17438;BME280;73152;52.198;5.422;2023-11-18T03:30:25;102149.00;;;20.35;46.68
17438;BME280;73152;52.198;5.422;2023-11-18T03:32:54;102151.84;;;20.34;47.08
17438;BME280;73152;52.198;5.422;2023-11-18T03:35:24;102149.00;;;20.35;46.89
17438;BME280;73152;52.198;5.422;2023-11-18T03:37:53;102144.63;;;20.34;46.80
17438;BME280;73152;52.198;5.422;2023-11-18T03:40:22;102143.94;;;20.32;46.94
17438;BME280;73152;52.198;5.422;2023-11-18T03:42:50;102140.22;;;20.33;47.03
17438;BME280;73152;52.198;5.422;2023-11-18T03:45:22;102143.78;;;20.34;47.02
17438;BME280;73152;52.198;5.422;2023-11-18T03:47:51;102129.47;;;20.33;46.83
17438;BME280;73152;52.198;5.422;2023-11-18T03:50:20;102125.78;;;20.34;46.85
17438;BME280;73152;52.198;5.422;2023-11-18T03:52:48;102118.69;;;20.33;46.98
17438;BME280;73152;52.198;5.422;2023-11-18T03:55:17;102117.03;;;20.32;46.89
17438;BME280;73152;52.198;5.422;2023-11-18T03:57:46;102109.63;;;20.34;47.17
17438;BME280;73152;52.198;5.422;2023-11-18T04:00:17;102098.19;;;20.32;47.02
17438;BME280;73152;52.198;5.422;2023-11-18T04:02:48;102094.63;;;20.32;46.72
17438;BME280;73152;52.198;5.422;2023-11-18T04:05:17;102086.38;;;20.33;46.76
17438;BME280;73152;52.198;5.422;2023-11-18T04:07:46;102080.19;;;20.33;47.10
17438;BME280;73152;52.198;5.422;2023-11-18T04:10:15;102078.31;;;20.33;46.94
17438;BME280;73152;52.198;5.422;2023-11-18T04:12:45;102080.19;;;20.33;47.08
17438;BME280;73152;52.198;5.422;2023-11-18T04:15:15;102085.56;;;20.33;47.06
17438;BME280;73152;52.198;5.422;2023-11-18T04:17:44;102085.56;;;20.33;47.10
17438;BME280;73152;52.198;5.422;2023-11-18T04:20:15;102087.22;;;20.34;46.79
17438;BME280;73152;52.198;5.422;2023-11-18T04:22:44;102082.16;;;20.31;47.18
17438;BME280;73152;52.198;5.422;2023-11-18T04:25:13;102083.00;;;20.31;46.79
17438;BME280;73152;52.198;5.422;2023-11-18T04:27:42;102068.56;;;20.32;47.10
17438;BME280;73152;52.198;5.422;2023-11-18T04:30:12;102057.78;;;20.32;46.72
17438;BME280;73152;52.198;5.422;2023-11-18T04:32:41;102064.16;;;20.31;46.95
17438;BME280;73152;52.198;5.422;2023-11-18T04:35:10;102053.25;;;20.33;47.07
17438;BME280;73152;52.198;5.422;2023-11-18T04:37:42;102049.03;;;20.30;46.87
17438;BME280;73152;52.198;5.422;2023-11-18T04:40:12;102049.03;;;20.30;46.79
17438;BME280;73152;52.198;5.422;2023-11-18T04:42:41;102056.09;;;20.31;46.68
17438;BME280;73152;52.198;5.422;2023-11-18T04:45:10;102049.53;;;20.34;47.00
17438;BME280;73152;52.198;5.422;2023-11-18T04:47:40;102049.84;;;20.31;46.74
17438;BME280;73152;52.198;5.422;2023-11-18T04:50:11;102036.25;;;20.32;46.85
17438;BME280;73152;52.198;5.422;2023-11-18T04:52:43;102037.25;;;20.31;46.95
17438;BME280;73152;52.198;5.422;2023-11-18T04:55:12;102032.88;;;20.30;46.88
17438;BME280;73152;52.198;5.422;2023-11-18T04:57:42;102030.19;;;20.30;47.07
17438;BME280;73152;52.198;5.422;2023-11-18T05:00:13;102026.47;;;20.31;46.58
17438;BME280;73152;52.198;5.422;2023-11-18T05:02:43;102025.47;;;20.32;46.91
17438;BME280;73152;52.198;5.422;2023-11-18T05:05:14;102023.97;;;20.30;46.60
17438;BME280;73152;52.198;5.422;2023-11-18T05:07:46;102034.56;;;20.31;46.57
17438;BME280;73152;52.198;5.422;2023-11-18T05:10:14;102038.28;;;20.30;46.91
17438;BME280;73152;52.198;5.422;2023-11-18T05:12:44;102039.94;;;20.31;46.64
17438;BME280;73152;52.198;5.422;2023-11-18T05:15:22;102028.50;;;20.29;46.83
17438;BME280;73152;52.198;5.422;2023-11-18T05:17:53;102032.88;;;20.30;46.95
17438;BME280;73152;52.198;5.422;2023-11-18T05:20:22;102020.41;;;20.29;46.75
17438;BME280;73152;52.198;5.422;2023-11-18T05:22:54;102014.19;;;20.29;46.89
17438;BME280;73152;52.198;5.422;2023-11-18T05:25:23;102018.41;;;20.31;46.53
17438;BME280;73152;52.198;5.422;2023-11-18T05:27:52;102008.66;;;20.30;46.68
17438;BME280;73152;52.198;5.422;2023-11-18T05:30:21;102006.78;;;20.31;46.84
17438;BME280;73152;52.198;5.422;2023-11-18T05:32:50;102011.34;;;20.30;46.61
17438;BME280;73152;52.198;5.422;2023-11-18T05:35:19;102015.03;;;20.29;46.94
17438;BME280;73152;52.198;5.422;2023-11-18T05:37:56;102009.66;;;20.29;46.86
17438;BME280;73152;52.198;5.422;2023-11-18T05:40:26;102013.19;;;20.30;46.90
17438;BME280;73152;52.198;5.422;2023-11-18T05:42:56;102015.03;;;20.29;47.06
17438;BME280;73152;52.198;5.422;2023-11-18T05:45:28;102012.34;;;20.29;46.93
17438;BME280;73152;52.198;5.422;2023-11-18T05:48:10;102009.66;;;20.29;46.77
17438;BME280;73152;52.198;5.422;2023-11-18T05:50:38;102005.97;;;20.30;46.64
17438;BME280;73152;52.198;5.422;2023-11-18T05:53:10;101997.72;;;20.32;46.77
17438;BME280;73152;52.198;5.422;2023-11-18T05:55:39;101991.78;;;20.28;46.71
17438;BME280;73152;52.198;5.422;2023-11-18T05:58:08;101983.72;;;20.28;46.61
17438;BME280;73152;52.198;5.422;2023-11-18T06:00:37;101975.63;;;20.28;46.83
17438;BME280;73152;52.198;5.422;2023-11-18T06:03:06;101970.13;;;20.30;46.97
17438;BME280;73152;52.198;5.422;2023-11-18T06:05:35;101977.34;;;20.29;46.84
17438;BME280;73152;52.198;5.422;2023-11-18T06:08:04;101993.50;;;20.29;46.63
17438;BME280;73152;52.198;5.422;2023-11-18T06:10:36;101986.28;;;20.30;46.75
17438;BME280;73152;52.198;5.422;2023-11-18T06:13:05;101980.34;;;20.26;46.79
17438;BME280;73152;52.198;5.422;2023-11-18T06:15:35;101967.75;;;20.27;46.75
17438;BME280;73152;52.198;5.422;2023-11-18T06:18:05;101968.59;;;20.27;46.85
17438;BME280;73152;52.198;5.422;2023-11-18T06:20:35;101970.25;;;20.28;46.75
17438;BME280;73152;52.198;5.422;2023-11-18T06:23:04;101970.25;;;20.28;46.82
17438;BME280;73152;52.198;5.422;2023-11-18T06:25:33;101978.34;;;20.28;46.69
17438;BME280;73152;52.198;5.422;2023-11-18T06:28:04;101981.03;;;20.28;46.66
17438;BME280;73152;52.198;5.422;2023-11-18T06:30:33;101969.44;;;20.28;46.86
17438;BME280;73152;52.198;5.422;2023-11-18T06:33:02;101970.44;;;20.27;46.68
17438;BME280;73152;52.198;5.422;2023-11-18T06:35:32;101955.97;;;20.28;46.52
17438;BME280;73152;52.198;5.422;2023-11-18T06:38:01;101956.13;;;20.26;46.68
17438;BME280;73152;52.198;5.422;2023-11-18T06:40:30;101953.28;;;20.28;46.64
17438;BME280;73152;52.198;5.422;2023-11-18T06:43:03;101960.34;;;20.29;46.73
17438;BME280;73152;52.198;5.422;2023-11-18T06:45:36;101967.56;;;20.28;46.72
17438;BME280;73152;52.198;5.422;2023-11-18T06:48:06;101970.59;;;20.25;46.71
17438;BME280;73152;52.198;5.422;2023-11-18T06:50:34;101965.91;;;20.27;46.38
17438;BME280;73152;52.198;5.422;2023-11-18T06:53:05;101963.22;;;20.27;46.35
17438;BME280;73152;52.198;5.422;2023-11-18T06:55:34;101961.38;;;20.28;46.25
17438;BME280;73152;52.198;5.422;2023-11-18T06:58:06;101971.78;;;20.31;46.62
17438;BME280;73152;52.198;5.422;2023-11-18T07:00:36;101978.69;;;20.33;46.97
17438;BME280;73152;52.198;5.422;2023-11-18T07:03:05;101979.53;;;20.34;46.91
17438;BME280;73152;52.198;5.422;2023-11-18T07:05:34;101972.31;;;20.34;47.06
17438;BME280;73152;52.198;5.422;2023-11-18T07:08:04;101972.13;;;20.36;47.29
17438;BME280;73152;52.198;5.422;2023-11-18T07:10:34;101967.59;;;20.36;47.47
17438;BME280;73152;52.198;5.422;2023-11-18T07:13:06;101973.66;;;20.38;47.45
17438;BME280;73152;52.198;5.422;2023-11-18T07:15:36;101979.38;;;20.43;47.49
17438;BME280;73152;52.198;5.422;2023-11-18T07:18:05;101976.88;;;20.42;47.33
17438;BME280;73152;52.198;5.422;2023-11-18T07:20:35;101976.69;;;20.43;47.35
17438;BME280;73152;52.198;5.422;2023-11-18T07:23:03;101977.53;;;20.44;47.25
17438;BME280;73152;52.198;5.422;2023-11-18T07:25:34;101975.72;;;20.44;47.36
17438;BME280;73152;52.198;5.422;2023-11-18T07:28:06;101977.38;;;20.45;47.33
17438;BME280;73152;52.198;5.422;2023-11-18T07:30:35;101974.69;;;20.45;47.18
17438;BME280;73152;52.198;5.422;2023-11-18T07:33:04;101989.84;;;20.46;47.56
17438;BME280;73152;52.198;5.422;2023-11-18T07:35:34;101988.81;;;20.47;47.58
17438;BME280;73152;52.198;5.422;2023-11-18T07:38:04;101983.28;;;20.49;47.11
17438;BME280;73152;52.198;5.422;2023-11-18T07:40:33;101988.50;;;20.50;47.11
17438;BME280;73152;52.198;5.422;2023-11-18T07:43:07;101985.63;;;20.52;47.33
17438;BME280;73152;52.198;5.422;2023-11-18T07:45:37;101986.47;;;20.52;47.44
17438;BME280;73152;52.198;5.422;2023-11-18T07:48:09;101982.06;;;20.51;47.37
17438;BME280;73152;52.198;5.422;2023-11-18T07:50:40;101980.91;;;20.54;47.12
17438;BME280;73152;52.198;5.422;2023-11-18T07:53:10;101971.84;;;20.55;47.27
17438;BME280;73152;52.198;5.422;2023-11-18T07:55:39;101965.28;;;20.57;47.20
17438;BME280;73152;52.198;5.422;2023-11-18T07:58:11;101955.50;;;20.56;47.48
17438;BME280;73152;52.198;5.422;2023-11-18T08:00:42;101952.47;;;20.59;47.49
17438;BME280;73152;52.198;5.422;2023-11-18T08:03:11;101950.78;;;20.58;47.61
17438;BME280;73152;52.198;5.422;2023-11-18T08:05:42;101930.06;;;20.59;47.39
17438;BME280;73152;52.198;5.422;2023-11-18T08:08:11;101942.56;;;20.60;47.21
17438;BME280;73152;52.198;5.422;2023-11-18T08:10:43;101946.91;;;20.61;47.48
17438;BME280;73152;52.198;5.422;2023-11-18T08:13:16;101942.38;;;20.61;47.16
17438;BME280;73152;52.198;5.422;2023-11-18T08:15:45;101928.06;;;20.61;47.02
17438;BME280;73152;52.198;5.422;2023-11-18T08:18:14;101930.06;;;20.59;46.84
17438;BME280;73152;52.198;5.422;2023-11-18T08:20:44;101931.78;;;20.60;46.67
17438;BME280;73152;52.198;5.422;2023-11-18T08:23:13;101927.25;;;20.60;46.76
17438;BME280;73152;52.198;5.422;2023-11-18T08:25:42;101923.53;;;20.61;46.86
17438;BME280;73152;52.198;5.422;2023-11-18T08:28:12;101924.69;;;20.59;46.65
17438;BME280;73152;52.198;5.422;2023-11-18T08:30:44;101919.84;;;20.62;46.72
17438;BME280;73152;52.198;5.422;2023-11-18T08:33:14;101924.53;;;20.60;46.43
17438;BME280;73152;52.198;5.422;2023-11-18T08:35:44;101913.91;;;20.59;46.37
17438;BME280;73152;52.198;5.422;2023-11-18T08:38:13;101906.69;;;20.59;46.46
17438;BME280;73152;52.198;5.422;2023-11-18T08:40:42;101909.38;;;20.59;46.47
17438;BME280;73152;52.198;5.422;2023-11-18T08:43:14;101901.31;;;20.59;46.34
17438;BME280;73152;52.198;5.422;2023-11-18T08:45:45;101907.34;;;20.61;46.27
17438;BME280;73152;52.198;5.422;2023-11-18T08:48:16;101900.31;;;20.60;46.13
17438;BME280;73152;52.198;5.422;2023-11-18T08:50:44;101891.19;;;20.61;46.40
17438;BME280;73152;52.198;5.422;2023-11-18T08:53:13;101897.44;;;20.62;46.14
17438;BME280;73152;52.198;5.422;2023-11-18T08:55:44;101878.75;;;20.60;46.31
17438;BME280;73152;52.198;5.422;2023-11-18T08:58:17;101894.56;;;20.63;46.32
17438;BME280;73152;52.198;5.422;2023-11-18T09:00:52;101882.97;;;20.63;46.17
17438;BME280;73152;52.198;5.422;2023-11-18T09:03:23;101873.00;;;20.63;45.89
17438;BME280;73152;52.198;5.422;2023-11-18T09:06:07;101866.81;;;20.63;45.81
17438;BME280;73152;52.198;5.422;2023-11-18T09:08:45;101860.56;;;20.62;46.17
17438;BME280;73152;52.198;5.422;2023-11-18T09:11:20;101851.47;;;20.63;46.19
17438;BME280;73152;52.198;5.422;2023-11-18T09:13:51;101851.47;;;20.63;46.12
17438;BME280;73152;52.198;5.422;2023-11-18T09:16:22;101849.94;;;20.61;45.89
17438;BME280;73152;52.198;5.422;2023-11-18T09:18:55;101852.13;;;20.65;46.10
17438;BME280;73152;52.198;5.422;2023-11-18T09:21:25;101829.91;;;20.63;45.99
17438;BME280;73152;52.198;5.422;2023-11-18T09:23:55;101826.22;;;20.64;46.15
17438;BME280;73152;52.198;5.422;2023-11-18T09:26:25;101817.97;;;20.66;45.94
17438;BME280;73152;52.198;5.422;2023-11-18T09:28:55;101810.72;;;20.66;45.74
17438;BME280;73152;52.198;5.422;2023-11-18T09:31:29;101815.44;;;20.64;46.09
17438;BME280;73152;52.198;5.422;2023-11-18T09:33:59;101817.09;;;20.65;46.01
17438;BME280;73152;52.198;5.422;2023-11-18T09:36:33;101817.97;;;20.66;45.84
17438;BME280;73152;52.198;5.422;2023-11-18T09:39:02;101799.94;;;20.66;45.74
17438;BME280;73152;52.198;5.422;2023-11-18T09:41:34;101790.16;;;20.65;45.76
17438;BME280;73152;52.198;5.422;2023-11-18T09:44:06;101762.41;;;20.65;45.92
17438;BME280;73152;52.198;5.422;2023-11-18T09:46:46;101776.69;;;20.65;46.04
17438;BME280;73152;52.198;5.422;2023-11-18T09:49:27;101770.50;;;20.57;46.26
17438;BME280;73152;52.198;5.422;2023-11-18T09:52:03;101779.13;;;20.44;46.70
17438;BME280;73152;52.198;5.422;2023-11-18T09:54:41;101778.44;;;20.42;46.67
17438;BME280;73152;52.198;5.422;2023-11-18T09:57:31;101767.66;;;20.42;46.79
17438;BME280;73152;52.198;5.422;2023-11-18T10:00:06;101781.50;;;20.39;46.83
17438;BME280;73152;52.198;5.422;2023-11-18T10:02:49;101783.84;;;20.34;46.78
17438;BME280;73152;52.198;5.422;2023-11-18T10:05:20;101783.66;;;20.36;46.72
17438;BME280;73152;52.198;5.422;2023-11-18T10:07:52;101790.91;;;20.35;46.78
17438;BME280;73152;52.198;5.422;2023-11-18T10:10:24;101790.91;;;20.35;46.92
17438;BME280;73152;52.198;5.422;2023-11-18T10:13:02;101795.28;;;20.36;47.00
17438;BME280;73152;52.198;5.422;2023-11-18T10:15:44;101782.00;;;20.35;46.83
17438;BME280;73152;52.198;5.422;2023-11-18T10:18:16;101777.44;;;20.35;46.94
17438;BME280;73152;52.198;5.422;2023-11-18T10:20:49;101774.06;;;20.33;46.85
17438;BME280;73152;52.198;5.422;2023-11-18T10:23:21;101762.13;;;20.36;46.87
17438;BME280;73152;52.198;5.422;2023-11-18T10:25:56;101771.38;;;20.33;47.17
17438;BME280;73152;52.198;5.422;2023-11-18T10:28:28;101766.00;;;20.33;46.67
17438;BME280;73152;52.198;5.422;2023-11-18T10:31:00;101764.34;;;20.32;46.91
17438;BME280;73152;52.198;5.422;2023-11-18T10:33:36;101761.97;;;20.29;47.09
17438;BME280;73152;52.198;5.422;2023-11-18T10:36:20;101759.94;;;20.31;47.01
17438;BME280;73152;52.198;5.422;2023-11-18T10:38:52;101754.91;;;20.28;46.59
17438;BME280;73152;52.198;5.422;2023-11-18T10:41:22;101740.44;;;20.29;47.01
17438;BME280;73152;52.198;5.422;2023-11-18T10:44:06;101729.84;;;20.28;46.98
17438;BME280;73152;52.198;5.422;2023-11-18T10:46:41;101734.56;;;20.26;46.82
17438;BME280;73152;52.198;5.422;2023-11-18T10:49:16;101719.22;;;20.26;46.67
17438;BME280;73152;52.198;5.422;2023-11-18T10:51:45;101715.88;;;20.24;47.02
17438;BME280;73152;52.198;5.422;2023-11-18T10:54:14;101715.88;;;20.24;46.85
17438;BME280;73152;52.198;5.422;2023-11-18T10:56:48;101712.19;;;20.25;46.54
17438;BME280;73152;52.198;5.422;2023-11-18T10:59:23;101695.38;;;20.23;46.95
17438;BME280;73152;52.198;5.422;2023-11-18T11:01:52;101704.25;;;20.24;47.04
17438;BME280;73152;52.198;5.422;2023-11-18T11:04:26;101702.41;;;20.24;46.85
17438;BME280;73152;52.198;5.422;2023-11-18T11:06:55;101691.50;;;20.26;46.79
17438;BME280;73152;52.198;5.422;2023-11-18T11:09:27;101695.00;;;20.26;46.75
17438;BME280;73152;52.198;5.422;2023-11-18T11:12:10;101685.75;;;20.29;47.49
17438;BME280;73152;52.198;5.422;2023-11-18T11:14:50;101680.03;;;20.32;47.16
17438;BME280;73152;52.198;5.422;2023-11-18T11:17:28;101671.81;;;20.25;47.48
17438;BME280;73152;52.198;5.422;2023-11-18T11:20:06;101649.91;;;20.20;47.73
17438;BME280;73152;52.198;5.422;2023-11-18T11:23:03;101634.28;;;20.16;47.62
17438;BME280;73152;52.198;5.422;2023-11-18T11:25:46;101613.94;;;20.13;47.58
17438;BME280;73152;52.198;5.422;2023-11-18T11:28:21;101609.91;;;20.09;47.68
17438;BME280;73152;52.198;5.422;2023-11-18T11:31:00;101583.81;;;20.09;47.50
17438;BME280;73152;52.198;5.422;2023-11-18T11:33:38;101552.38;;;20.10;47.55
17438;BME280;73152;52.198;5.422;2023-11-18T11:36:12;101541.97;;;20.07;47.36
17438;BME280;73152;52.198;5.422;2023-11-18T11:38:50;101546.34;;;20.08;47.74
17438;BME280;73152;52.198;5.422;2023-11-18T11:41:23;101553.94;;;20.04;47.73
17438;BME280;73152;52.198;5.422;2023-11-18T11:43:53;101566.72;;;20.02;47.57
17438;BME280;73152;52.198;5.422;2023-11-18T11:46:26;101553.09;;;20.04;47.85
17438;BME280;73152;52.198;5.422;2023-11-18T11:49:01;101542.31;;;20.04;47.66
17438;BME280;73152;52.198;5.422;2023-11-18T11:51:48;101535.63;;;20.00;47.84
17438;BME280;73152;52.198;5.422;2023-11-18T11:54:26;101517.78;;;19.99;48.17
17438;BME280;73152;52.198;5.422;2023-11-18T11:56:57;101495.19;;;20.08;48.15
17438;BME280;73152;52.198;5.422;2023-11-18T11:59:56;101496.25;;;20.07;47.81
17438;BME280;73152;52.198;5.422;2023-11-18T12:02:27;101502.63;;;20.06;47.93
17438;BME280;73152;52.198;5.422;2023-11-18T12:04:59;101494.53;;;20.06;48.18
17438;BME280;73152;52.198;5.422;2023-11-18T12:07:39;101485.28;;;20.08;48.18
17438;BME280;73152;52.198;5.422;2023-11-18T12:10:09;101481.75;;;20.08;48.13
17438;BME280;73152;52.198;5.422;2023-11-18T12:12:47;101475.53;;;20.07;48.26
17438;BME280;73152;52.198;5.422;2023-11-18T12:15:50;101473.34;;;20.11;48.05
17438;BME280;73152;52.198;5.422;2023-11-18T12:18:23;101474.00;;;20.13;48.08
17438;BME280;73152;52.198;5.422;2023-11-18T12:20:53;101478.19;;;20.16;48.34
17438;BME280;73152;52.198;5.422;2023-11-18T12:23:31;101473.66;;;20.16;48.46
17438;BME280;73152;52.198;5.422;2023-11-18T12:26:00;101468.94;;;20.18;48.20
17438;BME280;73152;52.198;5.422;2023-11-18T12:28:30;101452.28;;;20.15;48.40
17438;BME280;73152;52.198;5.422;2023-11-18T12:31:02;101432.09;;;20.19;48.36
17438;BME280;73152;52.198;5.422;2023-11-18T12:34:01;101401.44;;;20.20;48.54
17438;BME280;73152;52.198;5.422;2023-11-18T12:37:00;101393.56;;;20.18;48.35
17438;BME280;73152;52.198;5.422;2023-11-18T12:40:16;101364.63;;;20.20;48.51
17438;BME280;73152;52.198;5.422;2023-11-18T12:43:02;101352.16;;;20.19;48.29
17438;BME280;73152;52.198;5.422;2023-11-18T12:48:57;101350.13;;;20.21;48.63
17438;BME280;73152;52.198;5.422;2023-11-18T12:51:32;101352.69;;;20.23;48.62
17438;BME280;73152;52.198;5.422;2023-11-18T12:54:02;101329.19;;;20.39;48.48
17438;BME280;73152;52.198;5.422;2023-11-18T12:56:37;101282.31;;;20.48;47.89
17438;BME280;73152;52.198;5.422;2023-11-18T12:59:10;101260.88;;;20.55;47.85
17438;BME280;73152;52.198;5.422;2023-11-18T13:01:39;101290.94;;;20.58;47.74
17438;BME280;73152;52.198;5.422;2023-11-18T13:04:08;101289.94;;;20.59;47.39
17438;BME280;73152;52.198;5.422;2023-11-18T13:06:37;101299.50;;;20.62;47.43
17438;BME280;73152;52.198;5.422;2023-11-18T13:09:08;101277.75;;;20.34;47.91
17438;BME280;73152;52.198;5.422;2023-11-18T13:11:54;101276.25;;;20.32;48.24
17438;BME280;73152;52.198;5.422;2023-11-18T13:14:26;101287.47;;;20.35;48.03
17438;BME280;73152;52.198;5.422;2023-11-18T13:16:56;101287.84;;;20.32;47.94
17438;BME280;73152;52.198;5.422;2023-11-18T13:19:27;101282.28;;;20.34;48.21